Time;durP1;ratioP1;P1;durP2;ratioP2;P2;SDS_P1;SDS_P2;PMS_P1;PMS_P2;Temp;Humidity;BMP_temperature;BMP_pressure;BME280_temperature;BME280_humidity;BME280_pressure;Samples;Min_cycle;Max_cycle;Signal;HPM_P1;HPM_P2
2023/07/02 00:01:41;;;;;;;2.57;1.90;;;17.80;99.90;;;;;;5132575;27;20434;-67
2023/07/02 00:04:08;;;;;;;3.63;1.87;;;17.70;99.90;;;;;;5132661;27;20217;-67
2023/07/02 00:06:40;;;;;;;2.40;2.00;;;17.70;99.90;;;;;;5151766;27;20170;-68
2023/07/02 00:09:10;;;;;;;3.60;2.90;;;17.70;99.90;;;;;;5151623;27;20983;-67
2023/07/02 00:11:38;;;;;;;3.67;2.60;;;17.60;99.90;;;;;;5151106;27;20435;-68
2023/07/02 00:14:04;;;;;;;2.80;2.50;;;17.60;99.90;;;;;;5151094;27;20427;-68
2023/07/02 00:16:30;;;;;;;2.40;2.20;;;17.60;99.90;;;;;;5150871;27;20931;-67
2023/07/02 00:18:55;;;;;;;3.23;2.70;;;17.50;99.90;;;;;;5132189;27;20432;-68
2023/07/02 00:21:21;;;;;;;4.20;2.70;;;17.50;99.90;;;;;;5150930;27;20282;-68
2023/07/02 00:23:47;;;;;;;5.13;2.63;;;17.40;99.90;;;;;;5150892;27;20211;-68
2023/07/02 00:26:13;;;;;;;3.17;2.93;;;17.40;99.90;;;;;;5150893;27;20640;-68
2023/07/02 00:28:39;;;;;;;4.50;3.17;;;17.40;99.90;;;;;;5151111;27;20477;-68
2023/07/02 00:31:04;;;;;;;5.40;3.03;;;17.40;99.90;;;;;;5151142;27;21086;-68
2023/07/02 00:33:31;;;;;;;4.70;3.00;;;17.40;99.90;;;;;;5150972;27;20195;-68
2023/07/02 00:35:57;;;;;;;3.90;2.97;;;17.30;99.90;;;;;;5132231;27;20691;-68
2023/07/02 00:38:23;;;;;;;2.97;2.70;;;17.30;99.90;;;;;;5150969;27;20422;-69
2023/07/02 00:40:49;;;;;;;5.20;2.80;;;17.30;99.90;;;;;;5150751;27;20870;-68
2023/07/02 00:43:14;;;;;;;5.20;3.27;;;17.20;99.90;;;;;;5150763;27;20204;-68
2023/07/02 00:45:40;;;;;;;3.30;3.00;;;17.20;99.90;;;;;;5150669;27;20704;-69
2023/07/02 00:48:06;;;;;;;4.00;2.63;;;17.20;99.90;;;;;;5131996;27;20179;-68
2023/07/02 00:50:32;;;;;;;3.30;3.10;;;17.20;99.90;;;;;;5150697;27;20192;-69
2023/07/02 00:52:58;;;;;;;2.50;2.30;;;17.20;99.90;;;;;;5150554;27;20420;-69
2023/07/02 00:55:24;;;;;;;3.23;2.50;;;17.20;99.90;;;;;;5132002;27;20421;-68
2023/07/02 00:57:50;;;;;;;8.37;2.80;;;17.30;99.90;;;;;;5150643;27;20690;-68
2023/07/02 01:00:16;;;;;;;3.30;1.90;;;17.20;99.90;;;;;;5150266;27;20470;-68
2023/07/02 01:02:43;;;;;;;5.70;2.60;;;17.20;99.90;;;;;;5131812;27;20477;-68
2023/07/02 01:05:15;;;;;;;7.33;3.00;;;17.20;99.90;;;;;;5150775;27;20818;-69
2023/07/02 01:07:41;;;;;;;4.00;3.10;;;17.20;99.90;;;;;;5131897;27;20421;-68
2023/07/02 01:10:07;;;;;;;3.73;2.80;;;17.20;99.90;;;;;;5114619;27;20444;-68
2023/07/02 01:12:34;;;;;;;5.27;3.20;;;17.20;99.90;;;;;;5150337;27;20222;-68
2023/07/02 01:15:04;;;;;;;5.17;2.50;;;17.20;99.90;;;;;;5150369;27;20446;-68
2023/07/02 01:17:37;;;;;;;6.23;2.93;;;17.10;99.90;;;;;;5150838;27;20432;-68
2023/07/02 01:20:05;;;;;;;2.87;2.60;;;17.00;99.90;;;;;;5150552;27;20445;-68
2023/07/02 01:22:31;;;;;;;6.67;3.03;;;17.00;99.90;;;;;;5152687;27;20471;-68
2023/07/02 01:24:57;;;;;;;6.63;3.53;;;17.10;99.90;;;;;;5155008;27;20917;-69
2023/07/02 01:27:22;;;;;;;5.40;2.73;;;17.10;99.90;;;;;;5154952;27;20206;-68
2023/07/02 01:29:52;;;;;;;3.33;3.03;;;17.10;99.90;;;;;;5154997;27;20497;-68
2023/07/02 01:32:17;;;;;;;5.03;2.70;;;17.10;99.90;;;;;;5136512;27;20190;-68
2023/07/02 01:34:49;;;;;;;3.70;2.63;;;17.10;99.90;;;;;;5155283;27;20417;-68
2023/07/02 01:37:18;;;;;;;3.53;3.13;;;17.10;99.90;;;;;;5155341;27;20179;-68
2023/07/02 01:39:44;;;;;;;3.73;2.93;;;17.10;99.90;;;;;;5155401;27;20430;-68
2023/07/02 01:42:19;;;;;;;8.50;3.20;;;17.10;99.90;;;;;;5155262;27;20454;-68
2023/07/02 01:44:47;;;;;;;4.10;3.00;;;17.10;99.90;;;;;;5136396;27;20431;-68
2023/07/02 01:47:13;;;;;;;3.83;2.80;;;17.10;99.90;;;;;;5154923;27;20811;-68
2023/07/02 01:49:39;;;;;;;5.27;3.27;;;17.20;99.90;;;;;;5154826;27;20822;-69
2023/07/02 01:52:06;;;;;;;7.00;3.40;;;17.10;99.90;;;;;;5154793;27;20416;-69
2023/07/02 01:54:35;;;;;;;2.93;2.70;;;17.10;99.90;;;;;;5154714;27;20212;-68
2023/07/02 01:57:00;;;;;;;6.73;2.90;;;17.10;99.90;;;;;;5154637;27;20533;-68
2023/07/02 01:59:26;;;;;;;3.50;3.00;;;16.90;99.90;;;;;;5135915;27;20497;-68
2023/07/02 02:01:52;;;;;;;4.67;3.20;;;16.90;99.90;;;;;;5154486;27;20254;-68
2023/07/02 02:04:18;;;;;;;4.70;2.80;;;16.90;99.90;;;;;;5154261;27;20858;-68
2023/07/02 02:06:44;;;;;;;4.43;3.10;;;16.90;99.90;;;;;;5154146;27;20184;-68
2023/07/02 02:09:10;;;;;;;10.83;3.13;;;16.80;99.90;;;;;;5154147;27;20470;-69
2023/07/02 02:11:39;;;;;;;5.93;3.23;;;16.80;99.90;;;;;;5153740;27;20493;-68
2023/07/02 02:14:05;;;;;;;3.33;3.00;;;16.90;99.90;;;;;;5135757;27;20417;-67
2023/07/02 02:16:33;;;;;;;4.83;3.20;;;16.90;99.90;;;;;;5135467;27;20429;-68
2023/07/02 02:18:59;;;;;;;4.10;2.93;;;16.70;99.90;;;;;;5153890;27;20544;-68
2023/07/02 02:21:25;;;;;;;8.90;4.03;;;16.80;99.90;;;;;;5153620;27;20520;-67
2023/07/02 02:23:51;;;;;;;4.27;3.13;;;16.70;99.90;;;;;;5153839;27;20548;-68
2023/07/02 02:26:17;;;;;;;4.40;2.60;;;16.70;99.90;;;;;;5153408;27;20491;-68
2023/07/02 02:28:43;;;;;;;3.90;3.00;;;16.70;99.90;;;;;;5153453;27;20187;-68
2023/07/02 02:31:08;;;;;;;4.40;3.40;;;16.70;99.90;;;;;;5134553;27;20688;-68
2023/07/02 02:33:35;;;;;;;4.97;3.13;;;16.60;99.90;;;;;;5134210;27;20419;-68
2023/07/02 02:36:01;;;;;;;4.90;3.00;;;16.40;99.90;;;;;;5153232;27;20183;-68
2023/07/02 02:38:27;;;;;;;6.63;4.13;;;16.20;99.90;;;;;;5152875;27;20420;-68
2023/07/02 02:40:52;;;;;;;4.63;3.77;;;16.10;99.90;;;;;;5152622;27;20432;-68
2023/07/02 02:43:18;;;;;;;5.23;3.33;;;16.00;99.90;;;;;;5133979;27;20825;-68
2023/07/02 02:45:44;;;;;;;5.37;3.70;;;16.10;99.90;;;;;;5152505;27;20175;-67
2023/07/02 02:48:09;;;;;;;6.97;4.10;;;16.00;99.90;;;;;;5152563;27;20286;-68
2023/07/02 02:50:36;;;;;;;7.00;3.53;;;15.90;99.90;;;;;;5133718;27;20210;-67
2023/07/02 02:53:02;;;;;;;4.67;3.80;;;15.80;99.90;;;;;;5152425;27;20189;-68
2023/07/02 02:55:28;;;;;;;4.37;3.40;;;15.70;99.90;;;;;;5152402;27;20427;-68
2023/07/02 02:57:53;;;;;;;6.47;3.60;;;15.80;99.90;;;;;;5152449;27;20422;-68
2023/07/02 03:00:19;;;;;;;4.90;3.80;;;15.90;99.90;;;;;;5133481;27;20666;-67
2023/07/02 03:02:45;;;;;;;5.10;3.20;;;16.00;99.90;;;;;;5151984;27;20269;-68
2023/07/02 03:05:10;;;;;;;4.10;3.70;;;15.90;99.90;;;;;;5152088;27;20217;-67
2023/07/02 03:07:36;;;;;;;3.37;3.07;;;15.80;99.90;;;;;;5133621;27;20185;-67
2023/07/02 03:10:02;;;;;;;14.30;3.63;;;15.80;99.90;;;;;;5152097;27;20285;-68
2023/07/02 03:12:28;;;;;;;3.60;3.30;;;16.00;99.90;;;;;;5152244;27;20177;-68
2023/07/02 03:14:55;;;;;;;5.30;3.27;;;16.00;99.90;;;;;;5133305;27;20466;-69
2023/07/02 03:17:21;;;;;;;3.57;3.27;;;16.10;99.90;;;;;;5151154;27;20665;-68
2023/07/02 03:19:47;;;;;;;4.80;3.07;;;16.20;99.90;;;;;;5151618;27;20442;-68
2023/07/02 03:22:13;;;;;;;13.97;4.00;;;16.10;99.90;;;;;;5132896;27;20809;-68
2023/07/02 03:24:38;;;;;;;5.57;3.70;;;16.00;99.90;;;;;;5151942;27;20186;-67
2023/07/02 03:27:04;;;;;;;5.10;4.03;;;15.90;99.90;;;;;;5151802;27;20451;-68
2023/07/02 03:29:30;;;;;;;5.97;4.13;;;16.00;99.90;;;;;;5151770;27;20174;-68
2023/07/02 03:31:55;;;;;;;4.20;3.87;;;16.00;99.90;;;;;;5152148;27;20408;-68
2023/07/02 03:34:24;;;;;;;4.10;3.70;;;16.00;99.90;;;;;;5133407;27;20175;-68
2023/07/02 03:36:49;;;;;;;4.27;3.70;;;16.10;99.90;;;;;;5152100;27;20185;-68
2023/07/02 03:39:16;;;;;;;7.27;4.10;;;16.20;99.90;;;;;;5151816;27;20769;-68
2023/07/02 03:41:41;;;;;;;4.20;3.60;;;16.20;99.90;;;;;;5151722;27;20271;-68
2023/07/02 03:44:07;;;;;;;4.67;3.80;;;16.20;99.90;;;;;;5151529;27;21066;-68
2023/07/02 03:46:33;;;;;;;6.77;4.40;;;16.20;99.90;;;;;;5151882;27;20183;-68
2023/07/02 03:48:59;;;;;;;6.00;4.33;;;16.20;99.90;;;;;;5133193;27;20178;-69
2023/07/02 03:51:25;;;;;;;10.00;3.80;;;16.20;99.90;;;;;;5116093;27;20956;-68
2023/07/02 03:53:50;;;;;;;5.97;3.77;;;16.20;99.90;;;;;;5152118;27;20286;-68
2023/07/02 03:56:16;;;;;;;7.00;4.83;;;16.10;99.90;;;;;;5151838;27;20211;-67
2023/07/02 03:58:42;;;;;;;6.10;4.33;;;16.00;99.90;;;;;;5133124;27;20269;-68
2023/07/02 04:01:07;;;;;;;7.13;3.80;;;16.00;99.90;;;;;;5152041;27;20232;-67
2023/07/02 04:03:33;;;;;;;6.63;4.23;;;15.90;99.90;;;;;;5151635;27;20214;-68
2023/07/02 04:05:58;;;;;;;6.43;4.57;;;15.90;99.90;;;;;;5151676;27;20194;-68
2023/07/02 04:08:30;;;;;;;8.07;5.20;;;15.80;99.90;;;;;;5151043;27;20647;-68
2023/07/02 04:10:55;;;;;;;4.90;4.43;;;15.80;99.90;;;;;;5132007;27;20245;-67
2023/07/02 04:13:21;;;;;;;5.90;4.30;;;15.70;99.90;;;;;;5132080;27;21333;-68
2023/07/02 04:15:47;;;;;;;6.70;5.07;;;15.70;99.90;;;;;;5150868;27;20688;-68
2023/07/02 04:18:12;;;;;;;7.00;4.67;;;15.70;99.90;;;;;;5150814;27;20181;-67
2023/07/02 04:20:38;;;;;;;6.83;4.23;;;15.60;99.90;;;;;;5131988;27;20686;-68
2023/07/02 04:23:05;;;;;;;7.90;4.83;;;15.60;99.90;;;;;;5150531;27;20242;-68
2023/07/02 04:25:31;;;;;;;8.17;5.67;;;15.60;99.90;;;;;;5150682;27;20180;-68
2023/07/02 04:27:58;;;;;;;11.27;5.10;;;15.60;99.90;;;;;;5150556;27;20435;-68
2023/07/02 04:30:25;;;;;;;6.53;4.97;;;15.60;99.90;;;;;;5150498;27;20279;-68
2023/07/02 04:32:51;;;;;;;10.30;5.07;;;15.50;99.90;;;;;;5150368;27;20419;-67
2023/07/02 04:35:17;;;;;;;7.53;4.80;;;15.50;99.90;;;;;;5150302;27;20983;-67
2023/07/02 04:37:42;;;;;;;6.70;4.63;;;15.50;99.90;;;;;;5131747;27;20501;-67
2023/07/02 04:40:11;;;;;;;7.97;4.73;;;15.50;99.90;;;;;;5150375;27;20201;-68
2023/07/02 04:42:41;;;;;;;5.20;4.40;;;15.50;99.90;;;;;;5150245;27;20742;-68
2023/07/02 04:45:08;;;;;;;9.00;5.03;;;15.50;99.90;;;;;;5150291;27;20458;-68
2023/07/02 04:47:34;;;;;;;8.03;4.70;;;15.60;99.90;;;;;;5150240;27;20424;-68
2023/07/02 04:50:00;;;;;;;6.00;5.00;;;15.50;99.90;;;;;;5149998;27;20792;-68
2023/07/02 04:52:27;;;;;;;4.97;4.13;;;15.50;99.90;;;;;;5149837;27;20430;-67
2023/07/02 04:54:52;;;;;;;3.47;3.17;;;15.50;99.90;;;;;;5150225;27;20426;-68
2023/07/02 04:57:18;;;;;;;3.50;3.20;;;15.60;99.90;;;;;;5149895;27;20411;-68
2023/07/02 04:59:44;;;;;;;6.47;2.67;;;15.50;99.90;;;;;;5131046;27;20459;-68
2023/07/02 05:02:10;;;;;;;2.80;2.50;;;15.50;99.90;;;;;;5149762;27;20320;-68
2023/07/02 05:04:39;;;;;;;3.93;1.97;;;15.60;99.90;;;;;;5149781;27;20455;-68
2023/07/02 05:07:05;;;;;;;2.37;2.17;;;15.60;99.90;;;;;;5132087;27;20414;-68
2023/07/02 05:09:31;;;;;;;2.43;1.93;;;15.60;99.90;;;;;;5149961;27;20406;-67
2023/07/02 05:11:57;;;;;;;2.30;2.17;;;15.50;99.90;;;;;;5131437;27;20614;-67
2023/07/02 05:14:23;;;;;;;5.27;2.10;;;15.70;99.90;;;;;;5150078;27;20464;-67
2023/07/02 05:16:49;;;;;;;2.50;1.90;;;15.70;99.90;;;;;;5131283;27;20419;-68
2023/07/02 05:19:15;;;;;;;5.23;2.53;;;15.70;99.90;;;;;;5149939;27;20181;-68
2023/07/02 05:21:40;;;;;;;2.40;2.20;;;15.70;99.90;;;;;;5149765;27;20211;-68
2023/07/02 05:24:07;;;;;;;2.80;2.30;;;15.70;99.90;;;;;;5149597;27;20463;-68
2023/07/02 05:26:33;;;;;;;9.13;2.50;;;15.70;99.90;;;;;;5149702;27;20201;-68
2023/07/02 05:28:58;;;;;;;4.07;3.07;;;15.80;99.90;;;;;;5149859;27;20423;-68
2023/07/02 05:31:24;;;;;;;5.37;3.30;;;15.60;99.90;;;;;;5149815;27;20625;-68
2023/07/02 05:33:50;;;;;;;7.10;3.70;;;15.70;99.90;;;;;;5149778;27;20186;-68
2023/07/02 05:36:16;;;;;;;6.93;3.30;;;15.70;99.90;;;;;;5131297;27;20191;-68
2023/07/02 05:38:41;;;;;;;7.00;3.93;;;15.70;99.90;;;;;;5149743;27;20182;-68
2023/07/02 05:41:07;;;;;;;6.93;4.10;;;15.80;99.90;;;;;;5149768;27;20435;-68
2023/07/02 05:43:32;;;;;;;5.67;4.00;;;15.80;99.90;;;;;;5130945;27;20213;-68
2023/07/02 05:46:01;;;;;;;7.23;4.00;;;15.80;99.90;;;;;;5149911;27;20185;-68
2023/07/02 05:48:27;;;;;;;6.43;3.80;;;16.00;99.90;;;;;;5131814;27;20592;-68
2023/07/02 05:50:53;;;;;;;7.97;4.40;;;16.00;99.90;;;;;;5149833;27;20567;-68
2023/07/02 05:53:19;;;;;;;7.50;3.60;;;16.10;99.90;;;;;;5149921;27;20448;-68
2023/07/02 05:55:44;;;;;;;8.43;4.43;;;16.20;99.90;;;;;;5131306;27;20183;-68
2023/07/02 05:58:11;;;;;;;6.97;4.40;;;16.30;99.90;;;;;;5149890;27;20261;-68
2023/07/02 06:00:36;;;;;;;7.03;3.90;;;16.30;99.90;;;;;;5150300;27;20202;-69
2023/07/02 06:03:03;;;;;;;5.23;4.03;;;16.50;99.90;;;;;;5150327;27;20480;-68
2023/07/02 06:05:28;;;;;;;10.03;4.43;;;16.60;99.90;;;;;;5150420;27;20411;-68
2023/07/02 06:07:54;;;;;;;3.97;3.57;;;16.50;99.90;;;;;;5151126;27;20810;-68
2023/07/02 06:10:20;;;;;;;5.23;3.53;;;16.60;99.90;;;;;;5154017;27;20200;-68
2023/07/02 06:12:45;;;;;;;8.40;4.07;;;16.60;99.90;;;;;;5154032;27;20196;-68
2023/07/02 06:15:11;;;;;;;8.33;4.13;;;16.60;99.90;;;;;;5154112;27;20180;-68
2023/07/02 06:17:37;;;;;;;9.13;4.53;;;16.60;99.90;;;;;;5153883;27;20595;-69
2023/07/02 06:20:06;;;;;;;11.17;3.57;;;16.70;99.90;;;;;;5153627;27;20978;-68
2023/07/02 06:22:32;;;;;;;4.13;3.60;;;16.70;99.90;;;;;;5153441;27;20206;-68
2023/07/02 06:24:57;;;;;;;11.77;5.20;;;16.70;99.90;;;;;;5153456;27;20439;-68
2023/07/02 06:27:23;;;;;;;6.20;3.60;;;16.80;99.90;;;;;;5153199;27;20200;-68
2023/07/02 06:29:50;;;;;;;9.83;4.97;;;16.90;99.90;;;;;;5134299;27;20309;-69
2023/07/02 06:32:16;;;;;;;7.93;4.30;;;16.90;99.90;;;;;;5152910;27;20178;-68
2023/07/02 06:34:41;;;;;;;12.90;4.40;;;16.90;99.90;;;;;;5152920;27;20515;-68
2023/07/02 06:37:07;;;;;;;8.63;4.87;;;17.10;99.90;;;;;;5152829;27;20187;-68
2023/07/02 06:39:32;;;;;;;6.80;4.17;;;17.20;99.90;;;;;;5152889;27;20590;-67
2023/07/02 06:41:58;;;;;;;5.53;4.17;;;17.50;99.90;;;;;;5152779;27;20255;-68
2023/07/02 06:44:23;;;;;;;6.83;4.40;;;17.50;99.90;;;;;;5134241;27;20173;-68
2023/07/02 06:46:49;;;;;;;12.83;4.17;;;17.50;99.90;;;;;;5134535;27;20256;-69
2023/07/02 06:49:15;;;;;;;10.03;4.10;;;17.50;99.90;;;;;;5134220;27;20252;-68
2023/07/02 06:51:41;;;;;;;7.60;4.43;;;17.50;99.90;;;;;;5152849;27;20337;-68
2023/07/02 06:54:07;;;;;;;3.87;3.43;;;17.50;99.90;;;;;;5134451;27;20417;-68
2023/07/02 06:56:33;;;;;;;6.40;4.23;;;17.40;99.90;;;;;;5152969;27;20179;-68
2023/07/02 06:58:59;;;;;;;11.07;5.47;;;17.30;99.90;;;;;;5153007;27;20414;-68
2023/07/02 07:01:25;;;;;;;6.77;4.40;;;17.40;99.90;;;;;;5152958;27;20436;-68
2023/07/02 07:03:51;;;;;;;5.37;4.40;;;17.60;99.90;;;;;;5152800;27;20465;-67
2023/07/02 07:06:16;;;;;;;8.17;4.40;;;17.60;99.90;;;;;;5152905;27;20202;-68
2023/07/02 07:08:42;;;;;;;10.13;4.20;;;17.60;99.90;;;;;;5153056;27;20657;-67
2023/07/02 07:11:08;;;;;;;8.50;4.23;;;17.80;99.90;;;;;;5152937;27;20196;-68
2023/07/02 07:13:33;;;;;;;9.10;4.60;;;17.80;99.90;;;;;;5153032;27;20694;-68
2023/07/02 07:15:59;;;;;;;5.30;4.40;;;17.90;99.90;;;;;;5152965;27;20233;-68
2023/07/02 07:18:25;;;;;;;9.73;4.90;;;18.00;99.90;;;;;;5134026;27;20267;-67
2023/07/02 07:20:52;;;;;;;9.90;4.70;;;18.20;99.90;;;;;;5151378;27;20695;-67
2023/07/02 07:23:18;;;;;;;9.50;5.63;;;18.30;99.90;;;;;;5152439;27;20236;-68
2023/07/02 07:25:44;;;;;;;10.63;6.23;;;18.30;99.90;;;;;;5151962;27;20865;-68
2023/07/02 07:28:15;;;;;;;10.07;5.97;;;18.30;99.90;;;;;;5151857;27;20239;-68
2023/07/02 07:30:41;;;;;;;15.53;7.33;;;18.40;99.90;;;;;;5151563;27;20219;-68
2023/07/02 07:33:06;;;;;;;10.33;5.90;;;18.40;99.90;;;;;;5151560;27;20433;-68
2023/07/02 07:35:32;;;;;;;9.90;6.07;;;18.40;99.90;;;;;;5151555;27;20459;-68
2023/07/02 07:37:57;;;;;;;14.30;7.43;;;18.50;99.90;;;;;;5133094;27;20222;-68
2023/07/02 07:40:23;;;;;;;11.40;6.17;;;18.60;99.90;;;;;;5132926;27;20283;-67
2023/07/02 07:42:49;;;;;;;12.33;6.50;;;18.60;99.90;;;;;;5151454;27;20211;-68
2023/07/02 07:45:14;;;;;;;17.00;7.20;;;18.60;99.90;;;;;;5151652;27;20185;-68
2023/07/02 07:47:40;;;;;;;16.03;8.33;;;18.60;99.90;;;;;;5132735;27;20189;-68
2023/07/02 07:50:10;;;;;;;15.37;7.50;;;18.50;99.90;;;;;;5151205;27;20275;-68
2023/07/02 07:52:37;;;;;;;17.07;8.83;;;18.50;99.90;;;;;;5151100;27;20191;-68
2023/07/02 07:55:03;;;;;;;17.43;8.40;;;18.50;99.90;;;;;;5151087;27;20506;-68
2023/07/02 07:57:28;;;;;;;18.03;9.30;;;18.50;99.90;;;;;;5151261;27;20953;-68
2023/07/02 07:59:54;;;;;;;12.73;8.37;;;18.60;99.90;;;;;;5151048;27;20207;-68
2023/07/02 08:02:22;;;;;;;16.23;9.30;;;18.40;99.90;;;;;;5150882;27;20233;-68
2023/07/02 08:04:48;;;;;;;22.70;9.00;;;18.50;99.90;;;;;;5150934;27;20173;-68
2023/07/02 08:07:14;;;;;;;20.33;10.13;;;18.70;99.90;;;;;;5150947;27;20945;-68
2023/07/02 08:09:40;;;;;;;15.30;9.33;;;18.90;99.90;;;;;;5131920;27;20606;-68
2023/07/02 08:12:06;;;;;;;21.70;10.90;;;19.00;99.90;;;;;;5132179;27;20421;-68
2023/07/02 08:14:31;;;;;;;17.03;10.53;;;19.10;99.90;;;;;;5150838;27;20191;-68
2023/07/02 08:16:57;;;;;;;18.17;9.50;;;19.20;99.90;;;;;;5150852;27;20500;-68
2023/07/02 08:19:22;;;;;;;15.40;9.70;;;19.40;99.90;;;;;;5150683;27;20230;-68
2023/07/02 08:21:48;;;;;;;26.00;10.20;;;19.40;99.90;;;;;;5150566;27;20192;-68
2023/07/02 08:24:14;;;;;;;20.97;10.70;;;19.50;99.90;;;;;;5150465;27;20207;-68
2023/07/02 08:26:39;;;;;;;21.50;10.43;;;19.60;99.90;;;;;;5150634;27;20260;-69
2023/07/02 08:29:05;;;;;;;19.17;10.67;;;19.70;99.90;;;;;;5150413;27;20173;-67
2023/07/02 08:31:30;;;;;;;19.83;10.40;;;19.90;99.90;;;;;;5131401;27;20236;-67
2023/07/02 08:33:56;;;;;;;16.60;10.40;;;20.10;99.90;;;;;;5131669;27;20236;-68
2023/07/02 08:36:22;;;;;;;19.73;9.80;;;20.00;99.90;;;;;;5150571;27;20194;-68
2023/07/02 08:38:47;;;;;;;20.30;11.33;;;19.90;99.90;;;;;;5150499;27;20176;-68
2023/07/02 08:41:13;;;;;;;20.83;10.83;;;19.80;99.90;;;;;;5150265;27;20227;-67
2023/07/02 08:43:40;;;;;;;21.70;10.87;;;19.70;99.90;;;;;;5150263;27;20215;-67
2023/07/02 08:46:06;;;;;;;21.63;11.40;;;19.70;99.90;;;;;;5150248;27;20172;-67
2023/07/02 08:48:34;;;;;;;17.23;10.90;;;19.80;99.90;;;;;;5150252;27;21278;-68
2023/07/02 08:50:59;;;;;;;18.57;9.93;;;20.10;99.90;;;;;;5150280;27;21326;-68
2023/07/02 08:53:29;;;;;;;18.73;11.60;;;20.10;99.90;;;;;;5150345;27;20426;-68
2023/07/02 08:55:56;;;;;;;20.93;11.80;;;20.10;99.90;;;;;;5150123;27;20694;-68
2023/07/02 08:58:22;;;;;;;19.43;11.50;;;20.30;99.90;;;;;;5150078;27;20841;-67
2023/07/02 09:01:09;;;;;;;19.83;10.87;;;20.50;99.90;;;;;;5131368;27;20446;-68
2023/07/02 09:03:37;;;;;;;21.03;11.40;;;20.70;99.90;;;;;;5150041;27;21286;-68
2023/07/02 09:06:03;;;;;;;21.20;12.10;;;20.80;99.90;;;;;;5150437;27;20431;-68
2023/07/02 09:08:29;;;;;;;25.03;11.00;;;20.80;99.90;;;;;;5131533;27;20448;-68
2023/07/02 09:11:08;;;;;;;19.23;10.63;;;20.90;99.90;;;;;;5149978;27;20458;-68
2023/07/02 09:13:43;;;;;;;22.73;11.60;;;21.10;99.90;;;;;;5131167;27;20182;-68
2023/07/02 09:16:27;;;;;;;22.13;11.17;;;21.30;99.90;;;;;;5150019;27;20409;-68
2023/07/02 09:19:03;;;;;;;20.50;11.30;;;21.20;99.90;;;;;;5149966;27;20425;-68
2023/07/02 09:21:49;;;;;;;22.70;11.10;;;21.60;99.90;;;;;;5149914;27;20450;-68
2023/07/02 09:24:22;;;;;;;22.27;11.90;;;22.00;99.90;;;;;;5149601;27;20487;-68
2023/07/02 09:26:50;;;;;;;18.60;11.53;;;22.10;99.90;;;;;;5149852;27;20480;-68
2023/07/02 09:29:22;;;;;;;19.73;10.80;;;22.40;99.90;;;;;;5149830;27;20441;-68
2023/07/02 09:31:48;;;;;;;23.00;12.10;;;22.60;99.90;;;;;;5131448;27;20434;-68
2023/07/02 09:34:14;;;;;;;17.80;11.07;;;22.80;99.90;;;;;;5149878;27;20411;-68
2023/07/02 09:36:41;;;;;;;17.00;10.80;;;23.00;99.90;;;;;;5149953;27;20496;-68
2023/07/02 09:39:21;;;;;;;20.23;12.30;;;23.30;99.90;;;;;;5149650;27;20415;-68
2023/07/02 09:41:49;;;;;;;21.27;10.97;;;23.00;99.90;;;;;;5149627;27;20476;-68
2023/07/02 09:44:16;;;;;;;22.63;10.87;;;23.00;99.90;;;;;;5152618;27;20540;-68
2023/07/02 09:46:49;;;;;;;15.37;10.87;;;22.90;99.80;;;;;;5153846;27;20465;-71
2023/07/02 09:49:19;;;;;;;19.30;11.10;;;23.20;99.90;;;;;;5153616;27;20428;-73
2023/07/02 09:51:45;;;;;;;17.20;10.93;;;23.40;99.40;;;;;;5134749;27;20466;-73
2023/07/02 09:54:11;;;;;;;21.93;10.67;;;23.80;99.90;;;;;;5153836;27;20854;-72
2023/07/02 09:56:37;;;;;;;21.10;11.57;;;24.00;97.90;;;;;;5153806;27;20980;-73
2023/07/02 09:59:03;;;;;;;18.03;9.50;;;24.10;95.70;;;;;;5153563;27;20472;-72
2023/07/02 10:01:28;;;;;;;18.83;11.00;;;24.00;94.80;;;;;;5134824;27;20463;-73
2023/07/02 10:03:54;;;;;;;20.77;11.77;;;24.20;95.00;;;;;;5134734;27;20589;-73
2023/07/02 10:06:20;;;;;;;23.77;12.20;;;24.10;94.50;;;;;;5134575;27;20181;-73
2023/07/02 10:08:55;;;;;;;17.10;11.57;;;24.10;94.60;;;;;;5153387;27;20186;-74
2023/07/02 10:11:32;;;;;;;18.53;11.57;;;24.10;94.10;;;;;;5153310;27;20586;-73
2023/07/02 10:13:59;;;;;;;18.23;11.00;;;24.30;94.50;;;;;;5134605;27;20427;-73
2023/07/02 10:16:27;;;;;;;17.53;11.37;;;24.40;94.50;;;;;;5117352;27;20444;-74
2023/07/02 10:18:53;;;;;;;21.17;12.17;;;24.10;94.50;;;;;;5153130;27;20414;-73
2023/07/02 10:21:19;;;;;;;19.03;12.60;;;23.90;95.40;;;;;;5153233;27;20443;-74
2023/07/02 10:23:45;;;;;;;26.10;13.40;;;24.30;94.30;;;;;;5153031;27;20462;-74
2023/07/02 10:26:19;;;;;;;24.63;13.93;;;24.30;92.00;;;;;;5152917;27;20280;-73
2023/07/02 10:28:56;;;;;;;22.37;13.80;;;24.50;93.30;;;;;;5153271;27;20511;-72
2023/07/02 10:31:22;;;;;;;23.43;16.13;;;24.70;93.00;;;;;;5153231;27;20431;-73
2023/07/02 10:33:48;;;;;;;22.83;14.47;;;24.30;93.80;;;;;;5153247;27;20414;-72
2023/07/02 10:36:25;;;;;;;26.60;15.47;;;24.00;93.80;;;;;;5134509;27;20563;-71
2023/07/02 10:38:51;;;;;;;25.37;14.93;;;23.70;92.00;;;;;;5152456;27;20749;-73
2023/07/02 10:41:28;;;;;;;23.10;15.37;;;23.80;93.00;;;;;;5151716;27;21254;-72
2023/07/02 10:43:54;;;;;;;28.53;14.50;;;24.40;91.00;;;;;;5151846;27;20587;-73
2023/07/02 10:46:21;;;;;;;22.13;15.37;;;24.90;91.30;;;;;;5152156;27;20461;-73
2023/07/02 10:48:57;;;;;;;25.93;14.90;;;25.40;90.70;;;;;;5133538;27;20416;-73
2023/07/02 10:51:28;;;;;;;32.83;17.50;;;25.20;89.10;;;;;;5152271;27;20432;-72
2023/07/02 10:54:02;;;;;;;29.17;17.00;;;25.10;90.20;;;;;;5134152;27;20456;-73
2023/07/02 10:56:28;;;;;;;27.10;15.87;;;25.40;90.40;;;;;;5116297;27;20433;-73
2023/07/02 10:58:54;;;;;;;24.90;15.90;;;25.60;87.20;;;;;;5116488;27;20417;-74
2023/07/02 11:01:25;;;;;;;29.03;15.70;;;25.90;89.00;;;;;;5151838;27;20479;-74
2023/07/02 11:04:04;;;;;;;24.40;15.03;;;26.10;85.40;;;;;;5151518;27;20460;-71
2023/07/02 11:06:32;;;;;;;23.87;14.20;;;26.30;85.60;;;;;;5151655;27;20421;-72
2023/07/02 11:08:58;;;;;;;24.87;15.50;;;26.60;87.00;;;;;;5151332;27;20417;-73
2023/07/02 11:11:24;;;;;;;23.77;15.43;;;26.50;86.40;;;;;;5132102;27;20437;-73
2023/07/02 11:13:51;;;;;;;26.37;16.63;;;26.40;85.40;;;;;;5132620;27;20422;-72
2023/07/02 11:16:35;;;;;;;23.50;16.03;;;26.30;86.50;;;;;;5151332;27;20237;-73
2023/07/02 11:19:08;;;;;;;28.43;16.80;;;26.00;84.50;;;;;;5115667;27;20474;-72
2023/07/02 11:21:34;;;;;;;27.97;17.93;;;26.10;84.40;;;;;;5132722;27;20452;-72
2023/07/02 11:24:04;;;;;;;21.50;14.90;;;26.30;85.40;;;;;;5151432;27;20454;-73
2023/07/02 11:26:39;;;;;;;27.33;16.53;;;26.60;82.90;;;;;;5151358;27;20512;-73
2023/07/02 11:29:11;;;;;;;28.93;17.90;;;26.80;83.80;;;;;;5151369;27;20775;-72
2023/07/02 11:31:36;;;;;;;30.30;19.27;;;26.90;82.20;;;;;;5151261;27;20527;-74
2023/07/02 11:34:15;;;;;;;23.43;17.17;;;26.80;82.30;;;;;;5151292;27;20474;-72
2023/07/02 11:36:41;;;;;;;29.40;18.73;;;27.00;83.50;;;;;;5151226;27;20183;-72
2023/07/02 11:39:06;;;;;;;28.17;18.13;;;27.20;80.40;;;;;;5151058;27;20789;-71
2023/07/02 11:41:39;;;;;;;27.30;18.93;;;27.40;82.00;;;;;;5132131;27;20200;-71
2023/07/02 11:44:05;;;;;;;26.23;19.10;;;27.30;80.90;;;;;;5132284;27;20208;-71
2023/07/02 11:46:31;;;;;;;29.90;19.77;;;27.10;76.10;;;;;;5151110;27;20521;-71
2023/07/02 11:48:56;;;;;;;26.80;18.40;;;27.10;78.10;;;;;;5151459;27;20787;-71
2023/07/02 11:51:22;;;;;;;28.30;19.40;;;26.60;79.10;;;;;;5132787;27;20211;-70
2023/07/02 11:53:47;;;;;;;30.07;19.27;;;26.60;78.90;;;;;;5151501;27;20184;-70
2023/07/02 11:56:13;;;;;;;33.10;18.53;;;26.90;79.00;;;;;;5150983;27;20276;-71
2023/07/02 11:58:42;;;;;;;32.87;20.53;;;27.40;79.90;;;;;;5150710;27;20184;-72
2023/07/02 12:01:08;;;;;;;27.70;18.83;;;27.30;75.40;;;;;;5150768;27;20188;-71
2023/07/02 12:03:34;;;;;;;34.90;20.53;;;27.60;78.60;;;;;;5150896;27;20929;-71
2023/07/02 12:06:00;;;;;;;31.40;19.97;;;27.70;75.30;;;;;;5131604;27;20410;-71
2023/07/02 12:08:25;;;;;;;30.57;19.87;;;27.10;74.70;;;;;;5151042;27;20184;-73
2023/07/02 12:10:51;;;;;;;29.87;19.67;;;26.70;77.30;;;;;;5131961;27;20200;-73
2023/07/02 12:13:17;;;;;;;25.40;17.73;;;26.30;79.20;;;;;;5150665;27;20180;-72
2023/07/02 12:15:43;;;;;;;28.80;17.83;;;25.90;79.50;;;;;;5150571;27;20190;-71
2023/07/02 12:18:09;;;;;;;29.40;18.17;;;26.00;79.50;;;;;;5115119;27;20208;-71
2023/07/02 12:20:35;;;;;;;26.70;16.93;;;26.20;79.40;;;;;;5150606;27;20437;-72
2023/07/02 12:23:01;;;;;;;27.63;17.77;;;26.10;77.90;;;;;;5150762;27;20457;-72
2023/07/02 12:25:27;;;;;;;25.40;16.27;;;25.80;77.70;;;;;;5150621;27;20413;-71
2023/07/02 12:27:53;;;;;;;27.03;16.40;;;25.50;77.40;;;;;;5150411;27;20222;-72
2023/07/02 12:30:19;;;;;;;25.67;16.27;;;25.90;80.50;;;;;;5150316;27;20958;-72
2023/07/02 12:32:45;;;;;;;23.00;16.67;;;26.40;81.50;;;;;;5150413;27;20422;-72
2023/07/02 12:35:11;;;;;;;26.30;17.13;;;26.20;77.90;;;;;;5150246;27;20269;-72
2023/07/02 12:37:46;;;;;;;23.03;16.63;;;26.30;80.00;;;;;;5149789;27;20421;-72